Time;durP1;ratioP1;P1;durP2;ratioP2;P2;SDS_P1;SDS_P2;PMS_P1;PMS_P2;Temp;Humidity;BMP_temperature;BMP_pressure;BME280_temperature;BME280_humidity;BME280_pressure;Samples;Min_cycle;Max_cycle;Signal;HPM_P1;HPM_P2
2024/04/08 00:01:23;;;;;;;5.07;2.23;;;16.70;1.00;;;;;;5039672;28;20391;-84
2024/04/08 00:03:48;;;;;;;6.15;2.05;;;16.00;1.00;;;;;;5021186;28;20925;-84
2024/04/08 00:06:14;;;;;;;4.90;2.30;;;16.20;1.00;;;;;;5038682;28;20395;-84
2024/04/08 00:08:39;;;;;;;6.83;2.60;;;16.80;1.00;;;;;;5038469;28;20478;-84
2024/04/08 00:11:07;;;;;;;7.80;2.20;;;16.60;1.00;;;;;;5042559;28;20421;-84
2024/04/08 00:13:37;;;;;;;4.13;2.13;;;16.50;1.00;;;;;;5044214;28;20919;-84
2024/04/08 00:16:05;;;;;;;5.82;2.67;;;17.10;1.00;;;;;;5026464;28;20398;-84
2024/04/08 00:18:31;;;;;;;6.20;2.45;;;16.50;1.00;;;;;;5043426;28;20391;-84
2024/04/08 00:21:04;;;;;;;5.88;2.80;;;16.60;1.00;;;;;;5024008;28;20451;-84
2024/04/08 00:23:31;;;;;;;7.15;2.75;;;16.40;1.00;;;;;;5023413;28;20391;-84
2024/04/08 00:25:56;;;;;;;7.22;2.72;;;16.10;1.00;;;;;;5040986;28;20422;-84
2024/04/08 00:28:22;;;;;;;4.10;2.40;;;16.10;1.00;;;;;;5040747;28;20387;-84
2024/04/08 00:30:47;;;;;;;8.07;2.80;;;16.60;1.00;;;;;;5021669;28;20952;-84
2024/04/08 00:33:13;;;;;;;4.32;2.35;;;16.50;1.00;;;;;;5045526;28;20508;-84
2024/04/08 00:35:38;;;;;;;6.17;2.50;;;17.10;1.00;;;;;;5053220;28;20429;-84
2024/04/08 00:38:04;;;;;;;4.67;2.10;;;16.40;1.00;;;;;;5038432;28;20399;-84
2024/04/08 00:40:39;;;;;;;7.43;2.75;;;15.90;1.00;;;;;;5018445;28;20404;-84
2024/04/08 00:43:07;;;;;;;6.97;3.10;;;17.90;1.00;;;;;;5035535;28;20391;-84
2024/04/08 00:45:34;;;;;;;7.15;2.20;;;15.70;1.00;;;;;;5036545;28;20423;-84
2024/04/08 00:48:00;;;;;;;5.97;2.25;;;16.20;1.00;;;;;;5019815;28;20402;-84
2024/04/08 00:50:25;;;;;;;4.55;2.13;;;15.80;1.00;;;;;;5040055;28;20391;-84
2024/04/08 00:52:52;;;;;;;6.85;2.25;;;15.70;1.00;;;;;;5020790;28;20403;-85
2024/04/08 00:55:18;;;;;;;6.47;2.35;;;15.90;1.00;;;;;;5038509;28;20808;-84
2024/04/08 00:57:46;;;;;;;6.25;2.40;;;15.30;1.00;;;;;;5038577;28;20375;-84
2024/04/08 01:00:12;;;;;;;4.90;2.33;;;16.50;1.00;;;;;;5019337;28;20467;-85
2024/04/08 01:02:38;;;;;;;6.82;2.50;;;16.00;1.00;;;;;;5020569;28;20397;-84
2024/04/08 01:05:05;;;;;;;6.32;2.38;;;16.10;1.00;;;;;;5036674;28;20471;-84
2024/04/08 01:07:35;;;;;;;6.85;2.30;;;16.30;1.00;;;;;;5050921;28;20408;-84
2024/04/08 01:10:00;;;;;;;6.50;2.45;;;15.60;1.00;;;;;;5055664;28;20389;-84
2024/04/08 01:12:26;;;;;;;5.37;2.10;;;15.70;1.00;;;;;;5036901;28;20516;-85
2024/04/08 01:14:51;;;;;;;7.40;2.50;;;17.20;1.00;;;;;;5038296;28;20432;-84
2024/04/08 01:17:17;;;;;;;5.90;2.90;;;14.80;1.00;;;;;;5055803;28;20384;-84
2024/04/08 01:19:44;;;;;;;3.97;2.10;;;15.70;1.00;;;;;;5056159;28;20408;-85
2024/04/08 01:22:10;;;;;;;4.60;2.30;;;15.70;1.00;;;;;;5056924;28;20424;-84
2024/04/08 01:24:36;;;;;;;6.78;2.40;;;15.50;1.00;;;;;;5040390;28;20963;-84
2024/04/08 01:27:02;;;;;;;5.27;2.50;;;15.90;1.00;;;;;;5036269;28;20423;-85
2024/04/08 01:29:28;;;;;;;5.27;2.27;;;15.50;1.00;;;;;;5018478;28;20390;-84
2024/04/08 01:31:53;;;;;;;8.00;2.70;;;16.00;1.00;;;;;;5122980;23;20435;-84
2024/04/08 01:34:19;;;;;;;6.60;2.70;;;16.90;1.00;;;;;;5074456;28;20435;-84
2024/04/08 01:36:44;;;;;;;5.72;2.25;;;15.70;1.00;;;;;;5073757;28;20483;-84
2024/04/08 01:39:10;;;;;;;13.30;2.80;;;16.50;1.00;;;;;;5076216;28;20415;-84
2024/04/08 01:41:35;;;;;;;4.93;2.50;;;17.30;1.00;;;;;;5025629;28;20457;-84
2024/04/08 01:44:01;;;;;;;8.53;2.40;;;16.50;1.00;;;;;;5014485;28;20766;-84
2024/04/08 01:46:26;;;;;;;7.73;2.43;;;17.50;1.00;;;;;;5015095;28;20392;-84
2024/04/08 01:48:52;;;;;;;9.77;2.73;;;18.80;1.00;;;;;;5015074;28;20395;-84
2024/04/08 01:51:17;;;;;;;6.50;3.10;;;17.00;1.00;;;;;;5014636;28;20388;-84
2024/04/08 01:53:43;;;;;;;5.28;2.40;;;16.40;1.00;;;;;;5014355;28;20483;-84
2024/04/08 01:56:08;;;;;;;7.80;2.60;;;16.10;1.00;;;;;;5013321;28;20452;-84
2024/04/08 01:58:34;;;;;;;6.47;2.72;;;15.60;1.00;;;;;;5029175;28;20391;-84
2024/04/08 02:00:59;;;;;;;7.70;2.87;;;16.00;1.00;;;;;;5039834;28;20438;-84
2024/04/08 02:03:25;;;;;;;10.20;2.50;;;15.60;1.00;;;;;;5041737;28;20506;-84
2024/04/08 02:05:50;;;;;;;7.00;2.77;;;15.00;1.00;;;;;;5042285;28;20871;-82
2024/04/08 02:08:16;;;;;;;8.10;2.70;;;15.70;1.00;;;;;;5042306;28;20395;-83
2024/04/08 02:10:44;;;;;;;4.60;2.40;;;15.20;1.00;;;;;;5042397;28;20403;-83
2024/04/08 02:13:09;;;;;;;7.55;2.55;;;15.00;1.00;;;;;;5039260;28;20886;-83
2024/04/08 02:15:35;;;;;;;8.30;2.60;;;15.30;1.00;;;;;;5035375;28;20398;-84
2024/04/08 02:18:00;;;;;;;6.40;2.97;;;18.40;1.00;;;;;;5050970;28;20380;-83
2024/04/08 02:20:26;;;;;;;7.00;2.70;;;15.10;1.00;;;;;;5034065;28;20779;-84
2024/04/08 02:22:52;;;;;;;5.47;2.78;;;15.30;1.00;;;;;;5033860;28;20471;-83
2024/04/08 02:25:17;;;;;;;6.68;2.70;;;18.50;1.00;;;;;;5035383;28;20449;-84
2024/04/08 02:27:43;;;;;;;5.25;2.45;;;14.80;1.00;;;;;;5034905;28;20502;-83
2024/04/08 02:30:09;;;;;;;6.45;3.30;;;15.40;1.00;;;;;;5034336;28;20485;-83
2024/04/08 02:32:35;;;;;;;5.65;2.47;;;16.60;1.00;;;;;;5037227;28;20399;-83
2024/04/08 02:35:02;;;;;;;6.10;2.70;;;15.20;1.00;;;;;;5036078;28;20449;-83
2024/04/08 02:37:27;;;;;;;5.35;2.70;;;15.00;1.00;;;;;;5036751;28;20474;-83
2024/04/08 02:39:53;;;;;;;7.07;2.63;;;15.00;1.00;;;;;;5034254;28;20495;-83
2024/04/08 02:42:18;;;;;;;10.25;2.78;;;14.90;1.00;;;;;;5038066;28;20478;-83
2024/04/08 02:44:44;;;;;;;8.40;2.77;;;15.40;1.00;;;;;;5036492;28;20379;-83
2024/04/08 02:47:09;;;;;;;6.70;2.90;;;18.00;1.00;;;;;;5035303;28;20383;-83
2024/04/08 02:49:35;;;;;;;5.50;2.60;;;16.70;1.00;;;;;;5036832;28;20379;-83
2024/04/08 02:52:00;;;;;;;9.20;2.90;;;15.10;1.00;;;;;;5053470;28;20383;-82
2024/04/08 02:54:26;;;;;;;10.93;3.00;;;14.90;1.00;;;;;;5052632;28;20466;-82
2024/04/08 02:56:51;;;;;;;9.87;3.00;;;14.60;1.00;;;;;;5044945;28;20387;-82
2024/04/08 02:59:17;;;;;;;9.60;3.22;;;15.00;1.00;;;;;;5053125;28;20431;-82
2024/04/08 03:01:43;;;;;;;9.47;3.20;;;14.70;1.00;;;;;;5048733;28;20455;-82
2024/04/08 03:04:08;;;;;;;8.37;3.30;;;14.60;1.00;;;;;;5044412;28;20743;-82
2024/04/08 03:06:34;;;;;;;7.60;2.90;;;14.90;1.00;;;;;;5045270;28;20460;-83
2024/04/08 03:09:00;;;;;;;7.85;3.33;;;15.00;1.00;;;;;;5038525;28;20395;-82
2024/04/08 03:11:25;;;;;;;7.90;2.75;;;14.70;1.00;;;;;;5042401;28;20390;-82
2024/04/08 03:13:51;;;;;;;8.57;2.90;;;15.10;1.00;;;;;;5040449;28;20407;-83
2024/04/08 03:16:17;;;;;;;14.03;3.17;;;14.70;1.00;;;;;;5041654;28;20926;-83
2024/04/08 03:18:42;;;;;;;10.93;2.90;;;14.70;1.00;;;;;;5039741;28;20445;-83
2024/04/08 03:21:08;;;;;;;8.13;2.58;;;15.40;1.00;;;;;;5038483;28;20390;-83
2024/04/08 03:23:34;;;;;;;9.25;2.70;;;14.90;1.00;;;;;;5041497;28;20403;-83
2024/04/08 03:26:01;;;;;;;6.17;2.80;;;15.40;1.00;;;;;;5055232;28;20395;-84
2024/04/08 03:28:28;;;;;;;6.45;2.28;;;14.40;1.00;;;;;;5042602;28;20399;-83
2024/04/08 03:30:54;;;;;;;5.00;1.80;;;15.60;1.00;;;;;;5041742;28;20403;-84
2024/04/08 03:33:21;;;;;;;4.72;1.83;;;16.50;1.00;;;;;;5040183;28;20411;-84
2024/04/08 03:35:47;;;;;;;7.30;1.92;;;17.00;1.00;;;;;;5040416;28;20478;-83
2024/04/08 03:38:14;;;;;;;4.28;1.60;;;17.00;1.00;;;;;;5040586;28;20391;-83
2024/04/08 03:40:40;;;;;;;3.00;1.70;;;17.90;1.00;;;;;;5041891;28;20387;-84
2024/04/08 03:43:06;;;;;;;9.60;2.00;;;17.90;1.00;;;;;;5040931;28;20487;-83
2024/04/08 03:45:32;;;;;;;6.85;1.92;;;17.30;1.00;;;;;;5040556;28;20483;-82
2024/04/08 03:47:57;;;;;;;6.88;2.00;;;17.30;1.00;;;;;;5038983;28;20398;-83
2024/04/08 03:50:37;;;;;;;6.78;2.17;;;17.30;1.00;;;;;;5039536;28;20407;-83
2024/04/08 03:53:03;;;;;;;6.20;2.10;;;16.80;1.00;;;;;;5039570;28;20948;-83
2024/04/08 03:55:29;;;;;;;4.45;1.70;;;17.30;1.00;;;;;;5038599;28;20382;-83
2024/04/08 03:57:55;;;;;;;2.60;1.50;;;19.30;1.00;;;;;;5038040;28;20391;-83
2024/04/08 04:00:21;;;;;;;5.20;1.85;;;17.80;1.00;;;;;;5039305;28;20479;-84
2024/04/08 04:02:47;;;;;;;5.60;1.70;;;17.80;1.00;;;;;;5038719;28;21127;-83
2024/04/08 04:05:13;;;;;;;5.10;1.70;;;17.90;1.00;;;;;;5040039;28;20386;-83
2024/04/08 04:07:39;;;;;;;3.73;1.53;;;17.30;1.00;;;;;;5039757;28;20403;-84
2024/04/08 04:10:05;;;;;;;4.45;1.40;;;18.20;1.00;;;;;;5041993;28;20391;-85
2024/04/08 04:12:33;;;;;;;2.85;1.30;;;17.90;1.00;;;;;;5041575;28;20407;-82
2024/04/08 04:15:00;;;;;;;4.20;1.63;;;18.60;1.00;;;;;;5039865;28;20442;-83
2024/04/08 04:17:25;;;;;;;3.65;1.50;;;19.00;1.00;;;;;;5040318;28;20457;-83
2024/04/08 04:19:51;;;;;;;4.28;1.45;;;18.80;1.00;;;;;;5038196;28;20434;-83
2024/04/08 04:22:16;;;;;;;2.60;1.30;;;18.40;1.00;;;;;;5045061;28;20400;-82
2024/04/08 04:24:42;;;;;;;4.38;1.40;;;19.00;1.00;;;;;;5047039;28;20394;-82
2024/04/08 04:27:07;;;;;;;3.37;1.60;;;19.90;1.00;;;;;;5046542;28;20391;-82
2024/04/08 04:29:33;;;;;;;8.02;1.73;;;20.40;1.00;;;;;;5045589;28;20395;-84
2024/04/08 04:31:58;;;;;;;3.67;1.40;;;17.70;1.00;;;;;;5043915;28;20447;-84
2024/04/08 04:34:24;;;;;;;4.20;1.73;;;16.90;1.00;;;;;;5040385;28;20442;-84
2024/04/08 04:36:49;;;;;;;4.15;1.58;;;18.30;1.00;;;;;;5037687;28;20387;-84
2024/04/08 04:39:15;;;;;;;4.07;1.50;;;16.70;1.00;;;;;;5044062;28;20397;-84
2024/04/08 04:41:40;;;;;;;3.00;1.90;;;17.10;1.00;;;;;;5039183;28;20398;-84
2024/04/08 04:44:06;;;;;;;4.07;1.60;;;16.60;1.00;;;;;;5043954;28;20387;-84
2024/04/08 04:46:31;;;;;;;5.55;2.15;;;16.80;1.00;;;;;;5045361;28;20402;-84
2024/04/08 04:48:57;;;;;;;6.13;2.13;;;15.90;1.00;;;;;;5044228;28;20396;-81
2024/04/08 04:51:22;;;;;;;7.05;2.05;;;16.60;1.00;;;;;;5034672;28;20391;-84
2024/04/08 04:53:48;;;;;;;5.13;2.10;;;15.40;1.00;;;;;;5034226;28;20800;-83
2024/04/08 04:56:13;;;;;;;5.70;2.63;;;16.10;1.00;;;;;;5034930;28;20891;-82
2024/04/08 04:58:39;;;;;;;8.95;2.75;;;15.20;1.00;;;;;;5036732;28;20399;-83
2024/04/08 05:01:05;;;;;;;8.77;2.80;;;15.40;1.00;;;;;;5035967;28;20399;-82
2024/04/08 05:03:30;;;;;;;5.22;2.35;;;15.00;1.00;;;;;;5035008;28;20430;-84
2024/04/08 05:05:56;;;;;;;6.70;2.50;;;15.40;1.00;;;;;;5038308;28;20402;-86
2024/04/08 05:08:22;;;;;;;7.18;2.58;;;15.50;1.00;;;;;;5035653;28;20406;-84
2024/04/08 05:10:48;;;;;;;6.05;2.47;;;14.90;1.00;;;;;;5035001;28;20767;-82
2024/04/08 05:13:16;;;;;;;8.52;2.67;;;16.10;1.00;;;;;;5037843;28;20479;-84
2024/04/08 05:15:41;;;;;;;5.93;2.70;;;15.00;1.00;;;;;;5036424;28;20389;-84
2024/04/08 05:18:07;;;;;;;10.80;2.80;;;15.40;1.00;;;;;;5031301;28;20395;-84
2024/04/08 05:20:34;;;;;;;7.07;2.90;;;14.80;1.00;;;;;;5031751;28;20838;-84
2024/04/08 05:23:00;;;;;;;6.75;2.70;;;15.00;1.00;;;;;;5037492;28;20402;-84
2024/04/08 05:25:25;;;;;;;7.32;2.60;;;17.60;1.00;;;;;;5036682;28;20894;-84
2024/04/08 05:27:51;;;;;;;7.60;3.07;;;14.70;1.00;;;;;;5036703;28;20391;-84
2024/04/08 05:30:16;;;;;;;6.77;2.50;;;14.90;1.00;;;;;;5036919;28;20399;-84
2024/04/08 05:32:42;;;;;;;7.13;2.40;;;14.50;1.00;;;;;;5038588;28;20418;-84
2024/04/08 05:35:08;;;;;;;7.82;3.50;;;14.90;1.00;;;;;;5039630;28;20391;-84
2024/04/08 05:37:34;;;;;;;9.77;2.63;;;14.30;1.00;;;;;;5042645;28;20399;-84
2024/04/08 05:39:59;;;;;;;8.00;3.45;;;14.50;1.00;;;;;;5037471;28;20379;-84
2024/04/08 05:42:25;;;;;;;10.37;3.03;;;13.90;1.00;;;;;;5035668;28;20966;-83
2024/04/08 05:44:51;;;;;;;9.03;2.70;;;14.30;1.00;;;;;;5051640;28;20456;-84
2024/04/08 05:47:16;;;;;;;9.20;2.45;;;14.00;1.00;;;;;;5037303;28;20418;-84
2024/04/08 05:49:42;;;;;;;4.63;2.37;;;14.80;1.00;;;;;;5035984;28;20383;-84
2024/04/08 05:52:07;;;;;;;5.83;2.70;;;15.00;1.00;;;;;;5035920;28;20383;-84
2024/04/08 05:54:33;;;;;;;6.00;2.80;;;14.20;1.00;;;;;;5035056;28;20448;-84
2024/04/08 05:56:59;;;;;;;6.70;2.50;;;14.90;1.00;;;;;;5033779;28;20445;-84
2024/04/08 05:59:26;;;;;;;6.43;2.13;;;14.60;1.00;;;;;;5035737;28;20406;-84
2024/04/08 06:01:52;;;;;;;6.10;2.53;;;15.20;1.00;;;;;;5034644;28;20383;-82
2024/04/08 06:04:17;;;;;;;6.70;2.80;;;14.20;1.00;;;;;;5034965;28;20391;-84
2024/04/08 06:06:43;;;;;;;4.63;2.10;;;14.40;1.00;;;;;;5035121;28;20728;-84
2024/04/08 06:09:10;;;;;;;5.00;2.33;;;14.90;1.00;;;;;;5034968;28;20419;-84
2024/04/08 06:11:35;;;;;;;6.88;2.35;;;14.80;1.00;;;;;;5035712;28;20801;-84
2024/04/08 06:14:01;;;;;;;7.22;2.60;;;15.30;1.00;;;;;;5034695;28;20485;-84
2024/04/08 06:16:27;;;;;;;4.53;2.30;;;14.50;1.00;;;;;;5036531;28;20383;-84
2024/04/08 06:18:52;;;;;;;5.93;2.23;;;15.20;1.00;;;;;;5035135;28;20851;-84
2024/04/08 06:21:18;;;;;;;4.90;2.20;;;14.90;1.00;;;;;;5047334;28;20470;-83
2024/04/08 06:23:43;;;;;;;4.50;2.13;;;15.10;1.00;;;;;;5035089;28;20692;-84
2024/04/08 06:26:09;;;;;;;7.60;2.30;;;14.60;1.00;;;;;;5032489;28;20759;-84
2024/04/08 06:28:35;;;;;;;5.43;2.45;;;15.10;1.00;;;;;;5033423;28;20467;-84
2024/04/08 06:31:01;;;;;;;5.30;2.20;;;14.90;1.00;;;;;;5033280;28;20974;-83
2024/04/08 06:33:28;;;;;;;6.80;2.50;;;14.80;1.00;;;;;;5032549;28;21052;-85
2024/04/08 06:35:54;;;;;;;4.78;1.80;;;15.50;1.00;;;;;;5034773;28;20398;-84
2024/04/08 06:38:20;;;;;;;5.50;2.10;;;14.90;1.00;;;;;;5037425;28;20397;-84
2024/04/08 06:40:46;;;;;;;3.80;2.00;;;15.00;1.00;;;;;;5032511;28;20933;-83
2024/04/08 06:43:14;;;;;;;8.40;2.70;;;15.70;1.00;;;;;;5042396;28;20414;-83
2024/04/08 06:45:40;;;;;;;6.78;2.00;;;15.70;1.00;;;;;;5043329;28;20403;-83
2024/04/08 06:48:06;;;;;;;5.73;2.07;;;15.30;1.00;;;;;;5042522;28;20402;-83
2024/04/08 06:50:31;;;;;;;5.07;2.20;;;15.60;1.00;;;;;;5039807;28;20404;-84
2024/04/08 06:52:57;;;;;;;5.80;1.90;;;15.70;1.00;;;;;;5035130;28;20438;-84
2024/04/08 06:55:24;;;;;;;3.83;2.00;;;15.20;1.00;;;;;;5035354;28;20870;-84
2024/04/08 06:57:59;;;;;;;6.30;2.70;;;15.50;1.00;;;;;;5040002;28;20407;-82
2024/04/08 07:00:25;;;;;;;6.43;2.50;;;;;;;;;;5049025;28;20450;-83
2024/04/08 07:02:51;;;;;;;7.43;2.37;;;16.10;1.00;;;;;;5038732;28;20470;-83
2024/04/08 07:05:16;;;;;;;8.00;2.43;;;15.40;1.00;;;;;;5041391;28;20398;-82
2024/04/08 07:07:42;;;;;;;3.92;2.30;;;15.60;1.00;;;;;;5066306;28;20467;-84
2024/04/08 07:10:07;;;;;;;4.23;2.30;;;16.00;1.00;;;;;;5039180;28;20457;-84
2024/04/08 07:12:33;;;;;;;3.67;2.00;;;17.30;1.00;;;;;;5037935;28;20387;-83
2024/04/08 07:14:58;;;;;;;4.80;2.30;;;16.50;1.00;;;;;;5041207;28;20399;-82
2024/04/08 07:17:24;;;;;;;6.50;1.95;;;15.70;1.00;;;;;;5040943;28;20387;-82
2024/04/08 07:19:49;;;;;;;4.50;2.23;;;16.70;1.00;;;;;;5040546;28;20437;-83
2024/04/08 07:22:15;;;;;;;6.10;2.10;;;;;;;;;;5039363;28;20415;-83
2024/04/08 07:24:41;;;;;;;7.72;2.40;;;15.20;1.00;;;;;;5038571;28;20398;-83
2024/04/08 07:27:07;;;;;;;4.20;1.80;;;16.60;1.00;;;;;;5035598;28;20391;-83
2024/04/08 07:29:33;;;;;;;6.60;2.35;;;16.70;1.00;;;;;;5036690;28;20462;-83
2024/04/08 07:32:00;;;;;;;7.75;2.30;;;16.90;1.00;;;;;;5036430;28;20499;-83
2024/04/08 07:34:25;;;;;;;6.07;2.60;;;16.70;1.00;;;;;;5036934;28;20395;-83
2024/04/08 07:36:54;;;;;;;4.65;2.03;;;;;;;;;;5037313;28;20387;-83
2024/04/08 07:39:20;;;;;;;3.47;1.83;;;17.10;1.00;;;;;;5040136;28;20474;-83
2024/04/08 07:41:45;;;;;;;2.42;2.17;;;16.90;1.00;;;;;;5039435;28;20911;-83
2024/04/08 07:44:11;;;;;;;7.93;2.10;;;16.90;1.00;;;;;;5041712;28;20772;-83
2024/04/08 07:46:37;;;;;;;5.20;1.97;;;17.80;1.00;;;;;;5045753;28;20391;-83
2024/04/08 07:49:02;;;;;;;5.83;2.03;;;19.00;1.00;;;;;;5044990;28;20998;-83
2024/04/08 07:51:28;;;;;;;4.28;1.80;;;17.70;1.00;;;;;;5041052;28;20392;-83
2024/04/08 07:53:54;;;;;;;7.53;2.40;;;17.70;1.00;;;;;;5042432;28;20740;-83
2024/04/08 07:56:20;;;;;;;4.00;1.60;;;18.20;1.00;;;;;;5041434;28;20396;-83
2024/04/08 07:58:46;;;;;;;7.33;2.37;;;18.30;1.00;;;;;;5039961;28;20379;-83
2024/04/08 08:01:17;;;;;;;7.07;2.00;;;18.50;1.00;;;;;;5039511;28;20871;-83
2024/04/08 08:03:42;;;;;;;3.70;1.97;;;18.60;1.00;;;;;;5041352;28;20438;-83
2024/04/08 08:06:08;;;;;;;6.47;1.90;;;20.40;1.00;;;;;;5040778;28;20391;-84
2024/04/08 08:08:34;;;;;;;5.40;2.00;;;18.60;1.00;;;;;;5044235;28;20403;-83
2024/04/08 08:11:05;;;;;;;4.83;1.90;;;19.10;1.00;;;;;;5041664;28;20395;-83
2024/04/08 08:13:32;;;;;;;6.25;2.17;;;18.70;1.00;;;;;;5042974;28;20407;-84
2024/04/08 08:15:58;;;;;;;4.90;2.60;;;18.60;1.00;;;;;;5042810;28;20426;-84
2024/04/08 08:18:24;;;;;;;5.68;2.03;;;19.00;1.00;;;;;;5040739;28;20457;-84
2024/04/08 08:20:50;;;;;;;6.27;1.80;;;19.00;1.00;;;;;;5056130;28;20383;-83
2024/04/08 08:23:16;;;;;;;4.32;1.45;;;19.00;1.00;;;;;;5039201;28;20911;-84
2024/04/08 08:25:42;;;;;;;5.70;1.60;;;19.70;1.00;;;;;;5041469;28;20532;-85
2024/04/08 08:28:08;;;;;;;7.70;1.80;;;19.70;1.00;;;;;;5038524;28;20421;-84
2024/04/08 08:30:37;;;;;;;3.90;1.93;;;20.50;1.00;;;;;;5040195;28;20406;-84
2024/04/08 08:33:03;;;;;;;4.78;1.35;;;20.50;1.00;;;;;;5038145;28;20402;-84
2024/04/08 08:35:30;;;;;;;4.00;1.50;;;20.60;1.00;;;;;;5041005;28;20398;-84
2024/04/08 08:37:56;;;;;;;4.07;1.50;;;21.00;1.00;;;;;;5038599;28;20424;-84
2024/04/08 08:40:23;;;;;;;4.78;2.20;;;20.70;1.00;;;;;;5041804;28;20391;-86
2024/04/08 08:42:51;;;;;;;4.87;2.17;;;21.70;1.00;;;;;;5040496;28;20391;-85
2024/04/08 08:45:17;;;;;;;7.90;1.90;;;20.40;1.00;;;;;;5038367;28;20387;-85
2024/04/08 08:47:43;;;;;;;6.10;1.63;;;21.30;1.00;;;;;;5072363;28;20391;-84
2024/04/08 08:50:10;;;;;;;8.17;1.77;;;21.20;1.00;;;;;;5042336;28;20456;-83
2024/04/08 08:52:36;;;;;;;3.10;1.85;;;21.00;1.00;;;;;;5039964;28;20418;-84
2024/04/08 08:55:04;;;;;;;5.90;2.45;;;21.90;1.00;;;;;;5036692;28;20379;-84
2024/04/08 08:57:30;;;;;;;4.65;1.58;;;21.70;1.00;;;;;;5034218;28;20386;-82
2024/04/08 08:59:57;;;;;;;5.88;1.70;;;21.60;1.00;;;;;;5037524;28;20442;-84
2024/04/08 09:02:25;;;;;;;6.30;2.45;;;21.00;1.00;;;;;;5043450;28;20375;-83
2024/04/08 09:04:51;;;;;;;4.43;2.00;;;24.90;1.00;;;;;;5041881;28;20448;-83
2024/04/08 09:07:17;;;;;;;4.03;1.60;;;21.60;1.00;;;;;;5054488;28;20382;-83
2024/04/08 09:09:56;;;;;;;6.13;1.95;;;22.20;1.00;;;;;;5074815;28;20395;-84
2024/04/08 09:12:22;;;;;;;6.15;1.65;;;23.50;1.00;;;;;;5054058;28;20462;-84
2024/04/08 09:14:51;;;;;;;4.10;1.90;;;25.30;1.00;;;;;;5037172;28;20442;-83
2024/04/08 09:17:18;;;;;;;4.20;1.65;;;22.00;1.00;;;;;;5036937;28;20387;-83
2024/04/08 09:19:44;;;;;;;4.20;1.90;;;25.70;1.00;;;;;;5035128;28;20739;-82
2024/04/08 09:22:10;;;;;;;3.10;1.30;;;22.30;1.00;;;;;;5037252;28;20462;-85
2024/04/08 09:24:35;;;;;;;4.43;1.90;;;22.70;1.00;;;;;;5035468;28;20414;-84
2024/04/08 09:27:02;;;;;;;3.50;1.43;;;22.30;1.00;;;;;;5035961;28;20391;-83
2024/04/08 09:29:28;;;;;;;5.15;1.80;;;22.70;1.00;;;;;;5034078;28;20456;-83
2024/04/08 09:31:53;;;;;;;3.60;1.98;;;23.10;1.00;;;;;;5034175;28;20430;-84
2024/04/08 09:34:19;;;;;;;3.22;1.60;;;22.50;1.00;;;;;;5036248;28;20418;-84
2024/04/08 09:36:45;;;;;;;9.57;5.00;;;22.80;1.00;;;;;;5034291;28;20384;-84
2024/04/08 09:39:12;;;;;;;4.80;1.92;;;23.20;1.00;;;;;;5033698;28;20878;-83
2024/04/08 09:41:39;;;;;;;3.08;1.70;;;22.00;1.00;;;;;;5041981;28;20471;-83
2024/04/08 09:44:12;;;;;;;6.18;1.90;;;22.40;1.00;;;;;;5052217;28;20447;-83
2024/04/08 09:46:40;;;;;;;3.88;1.40;;;22.90;1.00;;;;;;5043022;28;20410;-84
2024/04/08 09:49:09;;;;;;;3.28;1.40;;;22.30;1.00;;;;;;5037148;28;20405;-83
2024/04/08 09:51:39;;;;;;;3.80;1.80;;;23.50;1.00;;;;;;5051597;28;20391;-84
2024/04/08 09:54:05;;;;;;;4.00;1.70;;;23.00;1.00;;;;;;5034807;28;20456;-84
2024/04/08 09:56:35;;;;;;;5.25;1.92;;;23.60;1.00;;;;;;5035834;28;20469;-83
2024/04/08 09:59:20;;;;;;;3.53;1.53;;;23.30;1.00;;;;;;5035689;28;20874;-82
2024/04/08 10:01:46;;;;;;;3.20;1.40;;;23.30;1.00;;;;;;5034663;28;20398;-83
2024/04/08 10:04:14;;;;;;;4.25;1.60;;;22.90;1.00;;;;;;5035549;28;20383;-84
2024/04/08 10:06:42;;;;;;;4.13;1.90;;;22.80;1.00;;;;;;5035213;28;20426;-84
2024/04/08 10:09:09;;;;;;;7.63;1.70;;;25.50;1.00;;;;;;5033479;28;20387;-84
2024/04/08 10:11:35;;;;;;;6.07;1.40;;;23.80;1.00;;;;;;5050721;28;20475;-84
2024/04/08 10:14:01;;;;;;;4.20;1.80;;;23.80;1.00;;;;;;5033869;28;20431;-83
2024/04/08 10:16:27;;;;;;;5.07;1.30;;;22.90;1.00;;;;;;5039204;28;20887;-84
2024/04/08 10:18:56;;;;;;;2.88;1.70;;;23.30;1.00;;;;;;5037115;28;20379;-83
2024/04/08 10:21:25;;;;;;;4.30;1.60;;;23.00;1.00;;;;;;5034681;28;20387;-83
2024/04/08 10:23:54;;;;;;;5.50;1.67;;;22.40;1.00;;;;;;5035220;28;20405;-83
2024/04/08 10:26:23;;;;;;;3.85;1.50;;;22.60;1.00;;;;;;5038977;28;20454;-83
2024/04/08 10:28:49;;;;;;;4.25;1.45;;;22.50;1.00;;;;;;5070659;28;20391;-84
2024/04/08 10:31:18;;;;;;;3.25;1.27;;;23.40;1.00;;;;;;5036121;28;20830;-84
2024/04/08 10:33:44;;;;;;;5.32;1.83;;;23.30;1.00;;;;;;5032764;28;20433;-84
2024/04/08 10:36:10;;;;;;;4.13;1.90;;;23.90;1.00;;;;;;5049853;28;20379;-84
2024/04/08 10:38:36;;;;;;;4.87;1.83;;;24.20;1.00;;;;;;5059667;28;20387;-84
2024/04/08 10:41:06;;;;;;;3.80;1.70;;;23.80;1.00;;;;;;5035616;28;20383;-83
2024/04/08 10:43:35;;;;;;;3.22;1.73;;;24.00;1.00;;;;;;5072094;28;20406;-84
2024/04/08 10:46:05;;;;;;;8.30;2.00;;;27.30;1.00;;;;;;5034572;28;20387;-84
2024/04/08 10:48:31;;;;;;;6.72;1.90;;;23.20;1.00;;;;;;5035041;28;20953;-84
2024/04/08 10:50:58;;;;;;;5.00;1.70;;;23.20;1.00;;;;;;5031727;28;20395;-84
2024/04/08 10:53:27;;;;;;;3.38;1.45;;;22.20;1.00;;;;;;5031733;28;20446;-84
2024/04/08 10:55:53;;;;;;;3.88;1.73;;;22.30;1.00;;;;;;5034551;28;20463;-83
2024/04/08 10:58:19;;;;;;;4.70;1.40;;;22.70;1.00;;;;;;5049066;28;20414;-84
2024/04/08 11:00:45;;;;;;;3.30;1.60;;;;;;;;;;5046604;28;20383;-84
2024/04/08 11:03:12;;;;;;;3.45;1.70;;;22.30;1.00;;;;;;5051600;28;20906;-84
2024/04/08 11:05:38;;;;;;;4.90;1.90;;;22.50;1.00;;;;;;5034583;28;20391;-84
2024/04/08 11:08:04;;;;;;;4.70;1.65;;;23.40;1.00;;;;;;5047867;28;20474;-84
2024/04/08 11:10:30;;;;;;;3.20;1.60;;;23.80;1.00;;;;;;5031637;28;20928;-83
2024/04/08 11:12:56;;;;;;;6.30;1.65;;;23.40;1.00;;;;;;5031701;28;20880;-83
2024/04/08 11:15:23;;;;;;;4.85;1.65;;;24.30;1.00;;;;;;5033582;28;20413;-83
2024/04/08 11:17:58;;;;;;;6.78;1.90;;;24.10;1.00;;;;;;5031396;28;20386;-83
2024/04/08 11:20:26;;;;;;;2.38;1.20;;;23.80;1.00;;;;;;5032852;28;20524;-83
2024/04/08 11:22:51;;;;;;;4.03;1.70;;;23.80;1.00;;;;;;5032129;28;20951;-84
2024/04/08 11:25:17;;;;;;;4.13;1.65;;;22.80;1.00;;;;;;5036823;28;20455;-87
2024/04/08 11:27:44;;;;;;;4.57;1.70;;;23.10;1.00;;;;;;5038424;28;20391;-84
2024/04/08 11:30:15;;;;;;;4.63;1.60;;;22.80;1.00;;;;;;5040041;28;20438;-82
2024/04/08 11:32:41;;;;;;;3.58;2.30;;;23.00;1.00;;;;;;5065252;28;20406;-82
2024/04/08 11:35:06;;;;;;;5.63;1.88;;;23.10;1.00;;;;;;5036095;28;20387;-83
2024/04/08 11:37:32;;;;;;;4.33;1.83;;;23.70;1.00;;;;;;5031388;28;20461;-82
2024/04/08 11:39:58;;;;;;;3.13;1.52;;;24.90;1.00;;;;;;5032421;28;20973;-83
2024/04/08 11:42:24;;;;;;;4.20;1.60;;;24.60;1.00;;;;;;5030459;28;20387;-83
2024/04/08 11:44:58;;;;;;;5.25;1.83;;;24.60;1.00;;;;;;5036068;28;20379;-84
2024/04/08 11:47:24;;;;;;;3.90;1.40;;;25.80;1.00;;;;;;5035067;28;20750;-84
2024/04/08 11:49:50;;;;;;;4.80;1.60;;;25.00;1.00;;;;;;5032862;28;20418;-83
2024/04/08 11:52:15;;;;;;;6.80;1.60;;;25.60;1.00;;;;;;5035108;28;20743;-84
2024/04/08 11:54:40;;;;;;;5.13;2.20;;;25.90;1.00;;;;;;5038255;28;20495;-84
2024/04/08 11:57:08;;;;;;;5.30;2.00;;;25.40;1.00;;;;;;5034277;28;20447;-84
2024/04/08 11:59:34;;;;;;;6.32;2.25;;;26.20;1.00;;;;;;5041301;28;20387;-84
2024/04/08 12:03:42;;;;;;;5.75;2.13;;;25.70;1.00;;;;;;5476223;26;20336;-83
2024/04/08 12:06:10;;;;;;;6.73;2.40;;;28.70;1.00;;;;;;5442519;26;20316;-83
2024/04/08 12:08:35;;;;;;;7.65;2.17;;;27.50;1.00;;;;;;5441675;26;20330;-84
2024/04/08 12:11:03;;;;;;;8.10;2.10;;;26.60;1.00;;;;;;5418066;26;20809;-83
2024/04/08 12:13:29;;;;;;;8.95;2.70;;;27.00;1.00;;;;;;5400239;26;20366;-83
2024/04/08 12:15:54;;;;;;;7.97;2.57;;;26.80;1.00;;;;;;5398185;26;20734;-84
2024/04/08 12:18:20;;;;;;;7.15;2.20;;;27.10;1.00;;;;;;5401008;26;20338;-84
2024/04/08 12:20:46;;;;;;;7.47;2.57;;;26.70;1.00;;;;;;5398443;26;20341;-85
2024/04/08 12:23:13;;;;;;;6.87;2.10;;;28.30;1.00;;;;;;5400328;26;20428;-84
2024/04/08 12:25:39;;;;;;;7.30;2.20;;;27.20;1.00;;;;;;5401486;26;20329;-84
2024/04/08 12:28:07;;;;;;;4.97;1.80;;;25.30;1.00;;;;;;5400276;26;20341;-83
2024/04/08 12:30:33;;;;;;;6.10;2.70;;;26.80;1.00;;;;;;5401236;26;20337;-83
2024/04/08 12:32:58;;;;;;;7.20;1.98;;;27.40;1.00;;;;;;5408323;26;20426;-83
2024/04/08 12:35:24;;;;;;;7.27;2.40;;;26.80;1.00;;;;;;5406367;26;20341;-83
2024/04/08 12:37:50;;;;;;;5.87;1.80;;;27.20;1.00;;;;;;5405298;26;20365;-84
2024/04/08 12:40:15;;;;;;;4.93;2.40;;;26.60;1.00;;;;;;5403880;26;20389;-84
2024/04/08 12:42:41;;;;;;;6.67;2.20;;;26.40;1.00;;;;;;5400212;26;20458;-83
2024/04/08 12:45:07;;;;;;;5.33;1.77;;;26.10;1.00;;;;;;5404676;26;20337;-85
2024/04/08 12:47:33;;;;;;;10.50;2.95;;;26.10;1.00;;;;;;5409221;26;20768;-82
2024/04/08 12:49:58;;;;;;;7.25;2.60;;;26.00;1.00;;;;;;5397348;26;20658;-83
2024/04/08 12:52:24;;;;;;;7.50;2.10;;;27.30;1.00;;;;;;5400450;26;20341;-83
2024/04/08 12:54:50;;;;;;;8.18;2.63;;;27.60;1.00;;;;;;5398423;26;20333;-83